Terminal Aerodrome Forecast
Issued by NWS Melbourne, FL

Home | Current Version | Previous Version | Text Only | Print | Product List | Glossary On
Versions: 1 2 3 4 5 6 7 8 9 10 11 12 13 14
000
FTUS42 KMLB 231737
TAFMLB
TAF
KMLB 231737Z 2318/2418 12010G18KT P6SM FEW030 SCT050 SCT250
      TEMPO 2318/2321 BKN030
     FM240000 13006KT P6SM FEW050
     FM240600 14005KT P6SM FEW020 SCT120 SCT250=

USA.gov is the U.S. government's official web portal to all federal, state and local government web resources and services.